Rio Blanco, PR (00744)

5:29 PM AST on April 19, 2015 (GMT -0400)
Aquabella | | Change Station
CLOSE
Current Station
Personal Weather Station
Location: Palmas Del Mar, HUMACAO
Elevation: 33 ft
Nearby Weather Stations

Elev 33 ft 18.09 °N, 65.80 °W | Updated 7 seconds ago

Mostly Cloudy
Mostly Cloudy
84.2 °F
Feels Like 92 °F
N
0.0
Wind Variable Wind from WSW
Gusts 4.0 mph

Today
High -- | Low -- °F
--% Chance of Precip.
Yesterday
High -- | Low -- °F
Precip. -- in
6:03 AM 6:40 PM
New Moon, 2% visible
Pressure 29.98 in
Visibility 10.0 miles
Clouds Scattered Clouds 2300 ft
Mostly Cloudy 2800 ft
Mostly Cloudy 3600 ft
Heat Index 92 °F
Dew Point 74 °F
Humidity 72%
Rainfall 0.04 in
Snow Depth Not available.
UV 1 out of 12
Pollen Not available.
Air Quality Not available.
Flu Activity Sporadic
SPECI TJNR 192124Z AUTO 14009KT 10SM SCT023 BKN028 BKN036 28/23 A2998 RMK AO2 T02780228 $

More Conditions Fewer Conditions

Pressure 29.98 in
Visibility 10.0 miles
Clouds Scattered Clouds 2300 ft
Mostly Cloudy 2800 ft
Mostly Cloudy 3600 ft
Heat Index 92 °F
Dew Point 74 °F
Humidity 72%
Rainfall 0.04 in
Snow Depth Not available.
UV 1 out of 12
Pollen Not available.
Air Quality Not available.
Flu Activity Sporadic
SPECI TJNR 192124Z AUTO 14009KT 10SM SCT023 BKN028 BKN036 28/23 A2998 RMK AO2 T02780228 $

More Conditions Fewer Conditions

10-Day Weather Forecast

Almanac

Astronomy

Apr. 19, 2015 Rise Set
Actual Time
Civil Twilight
Nautical Twilight
Astronomical Twilight
Moon
Length of Visible Light
Length of Day
Tomorrow will be .
, % of the Moon is Illuminated

Today's Extremes

State Highs State Lows

Community

WunderPhotos

Upload Photos

1,814,988 photos uploaded!

WunderBlogs® & News

Nearby

Air Quality

  Air Quality AQ Index Pollutant
Not available.

Snow Depth

Station Depth Elevation

Earthquake Activity

City Distance Mag. Time & Date
Minimum magnitude displayed is 2.5.

Coastal Water Temperatures

Place Temperature

Stations

Nearby Weather Stations

Station Location Temp. Windchill Dew Point Humidity Wind Precip. Elev Updated Type